Time;durP1;ratioP1;P1;durP2;ratioP2;P2;SDS_P1;SDS_P2;PMS_P1;PMS_P2;Temp;Humidity;BMP_temperature;BMP_pressure;BME280_temperature;BME280_humidity;BME280_pressure;Samples;Min_cycle;Max_cycle;Signal;HPM_P1;HPM_P2
2023/10/11 00:02:09;;;;;;;;;;;21.10;57.00;;;;;;5077009;28;19921;-71
2023/10/11 00:04:36;;;;;;;;;;;21.10;57.00;;;;;;5076618;28;19920;-71
2023/10/11 00:07:03;;;;;;;;;;;21.10;57.00;;;;;;5074360;28;19921;-71
2023/10/11 00:09:35;;;;;;;;;;;21.10;57.00;;;;;;5076005;28;19943;-71
2023/10/11 00:12:04;;;;;;;;;;;21.10;57.00;;;;;;5077433;28;19920;-71
2023/10/11 00:14:32;;;;;;;;;;;21.10;57.00;;;;;;5076382;28;19959;-71
2023/10/11 00:16:59;;;;;;;;;;;21.10;56.90;;;;;;5053582;28;19920;-71
2023/10/11 00:19:29;;;;;;;;;;;21.10;56.90;;;;;;5069280;28;19927;-71
2023/10/11 00:21:56;;;;;;;;;;;21.10;56.90;;;;;;5071696;28;19925;-71
2023/10/11 00:24:24;;;;;;;;;;;21.10;56.80;;;;;;5073132;28;19946;-71
2023/10/11 00:26:52;;;;;;;;;;;21.00;56.80;;;;;;5069511;28;19920;-71
2023/10/11 00:29:18;;;;;;;;;;;21.00;56.80;;;;;;5088820;28;20031;-71
2023/10/11 00:31:47;;;;;;;;;;;21.10;56.80;;;;;;5088911;28;20015;-71
2023/10/11 00:34:14;;;;;;;;;;;21.00;56.70;;;;;;5064881;28;19921;-71
2023/10/11 00:36:45;;;;;;;;;;;21.10;56.80;;;;;;5075710;28;19970;-71
2023/10/11 00:39:16;;;;;;;;;;;21.10;56.70;;;;;;5076211;28;19994;-71
2023/10/11 00:41:47;;;;;;;;;;;21.10;56.80;;;;;;5076093;28;19920;-71
2023/10/11 00:44:16;;;;;;;;;;;21.10;56.70;;;;;;5076103;28;19926;-71
2023/10/11 00:46:56;;;;;;;;;;;21.10;56.80;;;;;;5073968;28;19964;-71
2023/10/11 00:49:34;;;;;;;;;;;21.10;56.70;;;;;;5074727;28;19927;-71
2023/10/11 00:52:04;;;;;;;;;;;21.00;56.70;;;;;;5076688;28;19921;-71
2023/10/11 00:54:30;;;;;;;;;;;21.10;56.70;;;;;;5076075;28;19928;-71
2023/10/11 00:56:57;;;;;;;;;;;21.10;56.70;;;;;;5074888;28;20352;-71
2023/10/11 00:59:25;;;;;;;;;;;21.10;56.70;;;;;;5074753;28;19928;-71
2023/10/11 01:01:52;;;;;;;;;;;21.10;56.70;;;;;;5054524;28;20031;-71
2023/10/11 01:04:19;;;;;;;;;;;21.10;56.70;;;;;;5055097;28;19925;-71
2023/10/11 01:06:48;;;;;;;;;;;21.10;56.70;;;;;;5068434;28;19921;-71
2023/10/11 01:09:26;;;;;;;;;;;21.00;56.60;;;;;;5064401;28;19921;-71
2023/10/11 01:11:53;;;;;;;;;;;21.10;56.70;;;;;;5059840;28;20358;-71
2023/10/11 01:14:23;;;;;;;;;;;21.10;56.70;;;;;;5068311;28;19974;-71
2023/10/11 01:16:51;;;;;;;;;;;21.00;56.60;;;;;;5072778;28;19924;-71
2023/10/11 01:19:18;;;;;;;;;;;21.10;56.70;;;;;;5075952;28;19927;-71
2023/10/11 01:21:53;;;;;;;;;;;21.00;56.50;;;;;;5074626;28;19921;-71
2023/10/11 01:24:20;;;;;;;;;;;21.00;56.50;;;;;;5057523;28;19921;-71
2023/10/11 01:26:47;;;;;;;;;;;21.00;56.50;;;;;;5082374;28;19920;-71
2023/10/11 01:29:14;;;;;;;;;;;21.00;56.50;;;;;;5065982;28;20339;-71
2023/10/11 01:31:41;;;;;;;;;;;21.00;56.50;;;;;;5070183;28;19921;-71
2023/10/11 01:34:13;;;;;;;;;;;21.00;56.50;;;;;;5074653;28;19920;-71
2023/10/11 01:36:40;;;;;;;;;;;21.00;56.50;;;;;;5075229;28;19920;-71
2023/10/11 01:39:11;;;;;;;;;;;21.00;56.50;;;;;;5072862;28;19927;-71
2023/10/11 01:41:42;;;;;;;;;;;21.00;56.50;;;;;;5075428;28;20388;-71
2023/10/11 01:44:08;;;;;;;;;;;21.00;56.50;;;;;;5073216;28;19927;-71
2023/10/11 01:46:36;;;;;;;;;;;21.00;56.50;;;;;;5074779;28;19920;-71
2023/10/11 01:49:03;;;;;;;;;;;21.00;56.50;;;;;;5072001;28;19924;-69
2023/10/11 01:51:29;;;;;;;;;;;21.00;56.50;;;;;;5057636;28;19969;-68
2023/10/11 01:53:56;;;;;;;;;;;21.00;56.50;;;;;;5073989;28;19927;-68
2023/10/11 01:56:25;;;;;;;;;;;21.00;56.50;;;;;;5071064;28;19924;-68
2023/10/11 01:58:52;;;;;;;;;;;21.00;56.50;;;;;;5062429;28;19921;-69
2023/10/11 02:01:22;;;;;;;;;;;21.00;56.50;;;;;;5071620;28;19990;-68
2023/10/11 02:03:53;;;;;;;;;;;21.00;56.50;;;;;;5070067;28;19924;-69
2023/10/11 02:06:20;;;;;;;;;;;21.00;56.50;;;;;;5073908;28;19982;-69
2023/10/11 02:08:47;;;;;;;;;;;21.00;56.50;;;;;;5073723;28;19924;-68
2023/10/11 02:11:14;;;;;;;;;;;21.00;56.50;;;;;;5073822;28;19924;-69
2023/10/11 02:13:44;;;;;;;;;;;21.00;56.50;;;;;;5060464;28;19970;-68
2023/10/11 02:16:14;;;;;;;;;;;21.00;56.50;;;;;;5063671;28;19928;-68
2023/10/11 02:18:41;;;;;;;;;;;21.00;56.50;;;;;;5070531;28;19927;-69
2023/10/11 02:21:08;;;;;;;;;;;21.00;56.60;;;;;;5070205;28;19925;-68
2023/10/11 02:23:39;;;;;;;;;;;21.00;56.50;;;;;;5054860;28;19989;-68
2023/10/11 02:26:09;;;;;;;;;;;21.00;56.50;;;;;;5070352;28;19971;-69
2023/10/11 02:28:38;;;;;;;;;;;21.00;56.50;;;;;;5056689;28;19921;-68
2023/10/11 02:31:07;;;;;;;;;;;21.00;56.60;;;;;;5054089;28;19943;-69
2023/10/11 02:33:34;;;;;;;;;;;21.00;56.60;;;;;;5056537;28;20248;-68
2023/10/11 02:36:08;;;;;;;;;;;21.00;56.60;;;;;;5073112;28;19920;-68
2023/10/11 02:38:39;;;;;;;;;;;21.00;56.60;;;;;;5073787;28;19927;-69
2023/10/11 02:41:07;;;;;;;;;;;21.00;56.60;;;;;;5071609;28;19942;-69
2023/10/11 02:43:47;;;;;;;;;;;21.00;56.60;;;;;;5073141;28;19947;-69
2023/10/11 02:46:16;;;;;;;;;;;21.00;56.60;;;;;;5071481;28;19927;-68
2023/10/11 02:48:45;;;;;;;;;;;21.00;56.60;;;;;;5071454;28;19951;-69
2023/10/11 02:51:16;;;;;;;;;;;21.00;56.60;;;;;;5066048;28;19921;-69
2023/10/11 02:53:43;;;;;;;;;;;21.00;56.60;;;;;;5067600;28;19956;-69
2023/10/11 02:56:11;;;;;;;;;;;21.00;56.60;;;;;;5063328;28;19924;-68
2023/10/11 02:58:39;;;;;;;;;;;21.00;56.70;;;;;;5070554;28;19921;-68
2023/10/11 03:01:14;;;;;;;;;;;21.00;56.70;;;;;;5072764;28;19920;-68
2023/10/11 03:03:42;;;;;;;;;;;21.00;56.70;;;;;;5073360;28;19921;-68
2023/10/11 03:06:09;;;;;;;;;;;21.00;56.70;;;;;;5073462;28;19925;-68
2023/10/11 03:08:37;;;;;;;;;;;21.00;56.70;;;;;;5062187;28;19927;-72
2023/10/11 03:11:04;;;;;;;;;;;21.00;56.70;;;;;;5070026;28;20019;-68
2023/10/11 03:13:41;;;;;;;;;;;21.00;56.70;;;;;;5063907;28;19934;-69
2023/10/11 03:16:11;;;;;;;;;;;21.00;56.70;;;;;;5064193;28;19928;-68
2023/10/11 03:18:39;;;;;;;;;;;21.00;56.70;;;;;;5070342;28;19974;-69
2023/10/11 03:21:16;;;;;;;;;;;21.00;56.70;;;;;;5070037;28;19921;-68
2023/10/11 03:23:44;;;;;;;;;;;21.00;56.70;;;;;;5069524;28;19970;-69
2023/10/11 03:26:16;;;;;;;;;;;21.00;56.80;;;;;;5058807;28;20023;-68
2023/10/11 03:28:56;;;;;;;;;;;21.00;56.80;;;;;;5057802;28;19932;-68
2023/10/11 03:31:23;;;;;;;;;;;21.00;56.80;;;;;;5059147;28;19921;-68
2023/10/11 03:33:50;;;;;;;;;;;21.00;56.80;;;;;;5067862;28;19946;-68
2023/10/11 03:36:20;;;;;;;;;;;21.00;56.80;;;;;;5070111;28;19931;-69
2023/10/11 03:38:51;;;;;;;;;;;21.00;56.80;;;;;;5069487;28;19921;-68
2023/10/11 03:41:25;;;;;;;;;;;21.00;56.80;;;;;;5071839;28;19920;-69
2023/10/11 03:43:54;;;;;;;;;;;21.00;56.70;;;;;;5069378;28;19927;-69
2023/10/11 03:46:25;;;;;;;;;;;21.00;56.80;;;;;;5072420;28;19920;-68
2023/10/11 03:48:56;;;;;;;;;;;21.00;56.80;;;;;;5072325;28;20015;-68
2023/10/11 03:51:24;;;;;;;;;;;21.00;56.70;;;;;;5072613;28;19920;-68
2023/10/11 03:53:52;;;;;;;;;;;21.00;56.80;;;;;;5071249;28;19921;-68
2023/10/11 03:56:18;;;;;;;;;;;21.00;56.80;;;;;;5071525;28;19924;-68
2023/10/11 03:58:45;;;;;;;;;;;21.00;56.80;;;;;;5072372;28;19942;-68
2023/10/11 04:01:14;;;;;;;;;;;20.90;56.70;;;;;;5068988;28;19924;-68
2023/10/11 04:03:41;;;;;;;;;;;20.90;56.60;;;;;;5063021;28;19942;-69
2023/10/11 04:06:14;;;;;;;;;;;21.00;56.70;;;;;;5073988;28;19924;-68
2023/10/11 04:08:43;;;;;;;;;;;20.90;56.60;;;;;;5075759;28;19920;-68
2023/10/11 04:11:18;;;;;;;;;;;20.90;56.60;;;;;;5073706;28;19931;-68
2023/10/11 04:13:46;;;;;;;;;;;20.90;56.60;;;;;;5077352;28;20019;-68
2023/10/11 04:16:14;;;;;;;;;;;20.90;56.70;;;;;;5072385;28;19934;-69
2023/10/11 04:18:43;;;;;;;;;;;20.90;56.70;;;;;;5073581;28;19921;-69
2023/10/11 04:21:39;;;;;;;;;;;20.90;56.70;;;;;;5068847;28;20011;-68
2023/10/11 04:24:08;;;;;;;;;;;20.90;56.60;;;;;;5058517;28;19946;-68
2023/10/11 04:26:36;;;;;;;;;;;20.90;56.70;;;;;;5076437;28;19970;-69
2023/10/11 04:29:17;;;;;;;;;;;20.90;56.70;;;;;;5075420;28;19921;-69
2023/10/11 04:32:09;;;;;;;;;;;21.00;56.70;;;;;;5062547;28;19921;-69
2023/10/11 04:34:38;;;;;;;;;;;20.90;56.70;;;;;;5060964;28;19921;-74
2023/10/11 04:37:07;;;;;;;;;;;20.90;56.60;;;;;;5055651;28;19920;-69
2023/10/11 04:39:43;;;;;;;;;;;20.90;56.60;;;;;;5062088;28;19920;-68
2023/10/11 04:42:11;;;;;;;;;;;20.90;56.60;;;;;;5075509;28;19921;-69
2023/10/11 04:44:47;;;;;;;;;;;20.90;56.60;;;;;;5076097;28;19920;-69
2023/10/11 04:47:17;;;;;;;;;;;20.90;56.60;;;;;;5075897;28;19927;-72
2023/10/11 04:49:45;;;;;;;;;;;20.90;56.60;;;;;;5073790;28;19920;-71
2023/10/11 04:52:15;;;;;;;;;;;20.90;56.50;;;;;;5075611;28;19942;-72
2023/10/11 04:54:53;;;;;;;;;;;20.90;56.60;;;;;;5075467;28;19921;-72
2023/10/11 04:57:24;;;;;;;;;;;20.90;56.50;;;;;;5075494;28;19928;-72
2023/10/11 04:59:50;;;;;;;;;;;20.90;56.50;;;;;;5075897;28;19924;-71
2023/10/11 05:02:23;;;;;;;;;;;20.90;56.60;;;;;;5073600;28;20346;-72
2023/10/11 05:04:51;;;;;;;;;;;20.90;56.50;;;;;;5074975;28;19931;-72
2023/10/11 05:07:19;;;;;;;;;;;20.90;56.50;;;;;;5075113;28;19963;-72
2023/10/11 05:09:52;;;;;;;;;;;20.90;56.50;;;;;;5076093;28;19927;-72
2023/10/11 05:12:20;;;;;;;;;;;20.90;56.50;;;;;;5074998;28;19920;-72
2023/10/11 05:14:59;;;;;;;;;;;20.90;56.50;;;;;;5058472;28;19920;-72
2023/10/11 05:17:38;;;;;;;;;;;20.90;56.50;;;;;;5054322;28;19920;-72
2023/10/11 05:22:52;;;;;;;;;;;20.90;56.40;;;;;;5092235;28;19924;-72
2023/10/11 05:25:52;;;;;;;;;;;20.90;56.40;;;;;;5095021;28;19920;-72
2023/10/11 05:28:27;;;;;;;;;;;20.90;56.40;;;;;;5094698;28;20019;-72
2023/10/11 05:31:19;;;;;;;;;;;20.90;56.40;;;;;;5095359;28;19924;-71
2023/10/11 05:33:59;;;;;;;;;;;20.90;56.50;;;;;;5095544;28;20002;-72
2023/10/11 05:36:48;;;;;;;;;;;20.90;56.40;;;;;;5077673;28;20023;-72
2023/10/11 05:52:58;;;;;;;;;;;20.80;56.30;;;;;;5074144;28;19928;-72
2023/10/11 05:55:25;;;;;;;;;;;20.80;56.30;;;;;;5075130;28;19920;-72
2023/10/11 05:57:53;;;;;;;;;;;20.80;56.30;;;;;;5073865;28;19924;-72
2023/10/11 06:00:25;;;;;;;;;;;20.80;56.30;;;;;;5092074;28;19920;-71
2023/10/11 06:02:52;;;;;;;;;;;20.80;56.30;;;;;;5094008;28;19931;-72
2023/10/11 06:05:22;;;;;;;;;;;20.80;56.30;;;;;;5095563;28;19927;-72
2023/10/11 06:08:00;;;;;;;;;;;20.80;56.30;;;;;;5094249;28;19927;-71
2023/10/11 06:10:29;;;;;;;;;;;20.80;56.30;;;;;;5094376;28;19924;-72
2023/10/11 06:12:58;;;;;;;;;;;20.80;56.30;;;;;;5085267;28;19920;-72
2023/10/11 06:15:25;;;;;;;;;;;20.80;56.30;;;;;;5073681;28;19942;-72
2023/10/11 06:17:54;;;;;;;;;;;20.80;56.30;;;;;;5080472;28;19924;-68
2023/10/11 06:20:26;;;;;;;;;;;20.80;56.30;;;;;;5094371;28;19943;-70
2023/10/11 06:22:53;;;;;;;;;;;20.80;56.20;;;;;;5093678;28;20020;-71
2023/10/11 06:25:49;;;;;;;;;;;20.80;56.30;;;;;;5093777;28;19970;-71
2023/10/11 06:28:13;;;;;;;;;;;20.80;56.40;;;;;;5093211;28;19927;-72
2023/10/11 06:30:42;;;;;;;;;;;20.80;56.40;;;;;;5092025;28;19920;-70
2023/10/11 06:33:12;;;;;;;;;;;20.80;56.40;;;;;;5093609;28;19924;-69
2023/10/11 06:35:44;;;;;;;;;;;20.80;56.40;;;;;;5088050;28;20023;-69
2023/10/11 06:38:11;;;;;;;;;;;20.80;56.50;;;;;;5073460;28;19920;-69
2023/10/11 06:40:46;;;;;;;;;;;20.80;56.50;;;;;;5071955;28;22830;-69
2023/10/11 06:43:14;;;;;;;;;;;20.80;56.50;;;;;;5073436;28;19955;-69
2023/10/11 06:45:41;;;;;;;;;;;20.90;56.50;;;;;;5064996;28;19921;-71
2023/10/11 06:48:08;;;;;;;;;;;20.90;56.50;;;;;;5054302;28;19966;-71
2023/10/11 06:50:37;;;;;;;;;;;20.90;56.50;;;;;;5052980;28;19921;-70
2023/10/11 06:53:06;;;;;;;;;;;20.90;56.40;;;;;;5053334;28;19921;-70
2023/10/11 06:55:33;;;;;;;;;;;20.90;56.40;;;;;;5036684;28;19944;-71
2023/10/11 06:58:04;;;;;;;;;;;20.90;56.40;;;;;;5053250;28;19974;-71
2023/10/11 07:00:37;;;;;;;;;;;20.90;56.40;;;;;;5062438;28;19974;-70
2023/10/11 07:03:21;;;;;;;;;;;20.90;56.40;;;;;;5073423;28;19950;-71
2023/10/11 07:05:48;;;;;;;;;;;20.90;56.40;;;;;;5056457;28;19920;-70
2023/10/11 07:08:17;;;;;;;;;;;20.90;56.40;;;;;;5073028;28;19920;-70
2023/10/11 07:10:45;;;;;;;;;;;20.90;56.40;;;;;;5073104;28;19921;-70
2023/10/11 07:13:13;;;;;;;;;;;20.90;56.40;;;;;;5070578;28;20105;-73
2023/10/11 07:15:41;;;;;;;;;;;21.00;56.40;;;;;;5073559;28;19952;-70
2023/10/11 07:18:10;;;;;;;;;;;21.00;56.40;;;;;;5072525;28;19927;-70
2023/10/11 07:20:58;;;;;;;;;;;21.00;56.40;;;;;;5073593;28;19920;-70
2023/10/11 07:23:26;;;;;;;;;;;21.00;56.40;;;;;;5072984;28;19950;-68
2023/10/11 07:25:59;;;;;;;;;;;21.00;56.40;;;;;;5073640;28;19931;-71
2023/10/11 07:28:35;;;;;;;;;;;21.00;56.40;;;;;;5081388;28;19927;-68
2023/10/11 07:31:04;;;;;;;;;;;21.10;56.40;;;;;;5087251;28;19970;-68
2023/10/11 07:33:30;;;;;;;;;;;21.10;56.40;;;;;;5098496;28;19920;-69
2023/10/11 07:35:59;;;;;;;;;;;21.10;56.40;;;;;;5078210;28;19927;-68
2023/10/11 07:38:32;;;;;;;;;;;21.00;56.30;;;;;;5056203;28;19920;-68
2023/10/11 07:41:04;;;;;;;;;;;21.10;56.40;;;;;;5077008;28;19943;-67
2023/10/11 07:43:32;;;;;;;;;;;21.10;56.30;;;;;;5098041;28;19920;-68
2023/10/11 07:45:59;;;;;;;;;;;21.10;56.30;;;;;;5097305;28;19927;-68
2023/10/11 07:48:31;;;;;;;;;;;21.10;56.30;;;;;;5096868;28;19955;-68
2023/10/11 07:51:03;;;;;;;;;;;21.10;56.30;;;;;;5097180;28;20010;-68
2023/10/11 07:53:32;;;;;;;;;;;21.10;56.30;;;;;;5077733;28;19926;-69
2023/10/11 07:55:59;;;;;;;;;;;21.20;56.40;;;;;;5057868;28;19920;-69
2023/10/11 07:58:32;;;;;;;;;;;21.10;56.30;;;;;;5054547;28;20378;-72
2023/10/11 08:01:02;;;;;;;;;;;21.10;56.30;;;;;;5077560;28;19974;-69
2023/10/11 08:03:34;;;;;;;;;;;21.10;56.30;;;;;;5076909;28;19967;-68
2023/10/11 08:06:05;;;;;;;;;;;21.20;56.40;;;;;;5078349;28;19974;-68
2023/10/11 08:08:32;;;;;;;;;;;21.20;56.40;;;;;;5075864;28;20400;-68
2023/10/11 08:11:06;;;;;;;;;;;21.20;56.40;;;;;;5094680;28;19963;-69
2023/10/11 08:13:34;;;;;;;;;;;21.20;56.40;;;;;;5097133;28;19920;-68
2023/10/11 08:16:05;;;;;;;;;;;21.20;56.40;;;;;;5062685;28;19920;-67
2023/10/11 08:18:34;;;;;;;;;;;21.20;56.40;;;;;;5056664;28;19921;-68
2023/10/11 08:21:01;;;;;;;;;;;21.20;56.30;;;;;;5055632;28;19921;-68
2023/10/11 08:23:29;;;;;;;;;;;21.20;56.40;;;;;;5057601;28;19960;-68
2023/10/11 08:25:56;;;;;;;;;;;21.20;56.30;;;;;;5056034;28;19920;-69
2023/10/11 08:28:28;;;;;;;;;;;21.20;56.40;;;;;;5056709;28;19921;-69
2023/10/11 08:30:57;;;;;;;;;;;21.20;56.40;;;;;;5057076;28;20366;-69
2023/10/11 08:33:25;;;;;;;;;;;21.20;56.40;;;;;;5056174;28;19920;-68
2023/10/11 08:35:54;;;;;;;;;;;21.20;56.40;;;;;;5055648;28;19927;-67
2023/10/11 08:41:06;;;;;;;;;;;21.20;56.40;;;;;;5054848;22;20278;-70
2023/10/11 08:43:34;;;;;;;;;;;21.20;56.40;;;;;;5044895;28;20017;-70
2023/10/11 08:46:05;;;;;;;;;;;21.30;56.50;;;;;;5043185;28;19940;-71
2023/10/11 08:48:38;;;;;;;;;;;21.30;56.50;;;;;;5043681;28;19920;-69
2023/10/11 08:51:10;;;;;;;;;;;21.20;56.50;;;;;;5042142;28;19921;-76
2023/10/11 08:53:39;;;;;;;;;;;21.30;56.60;;;;;;5065703;28;19920;-73
2023/10/11 08:56:09;;;;;;;;;;;21.30;56.60;;;;;;5039467;28;19951;-72
2023/10/11 08:58:36;;;;;;;;;;;21.30;56.60;;;;;;5048585;28;19937;-72
2023/10/11 09:01:03;;;;;;;;;;;21.30;56.60;;;;;;5047800;28;19921;-76
2023/10/11 09:03:31;;;;;;;;;;;21.30;56.70;;;;;;5048444;28;19929;-73
2023/10/11 09:06:01;;;;;;;;;;;21.30;56.70;;;;;;5043328;28;20394;-72
2023/10/11 09:08:32;;;;;;;;;;;21.30;56.70;;;;;;5040836;28;19940;-72
2023/10/11 09:11:11;;;;;;;;;;;21.40;56.80;;;;;;5034657;28;20364;-69
2023/10/11 09:13:37;;;;;;;;;;;21.40;56.80;;;;;;5038515;28;19929;-73
2023/10/11 09:16:12;;;;;;;;;;;21.40;56.80;;;;;;5042943;28;19964;-72
2023/10/11 09:18:38;;;;;;;;;;;21.40;56.90;;;;;;5043839;28;19948;-73
2023/10/11 09:21:15;;;;;;;;;;;21.40;56.80;;;;;;5032533;28;19936;-75
2023/10/11 09:23:46;;;;;;;;;;;21.40;56.90;;;;;;5047271;28;20246;-75
2023/10/11 09:26:20;;;;;;;;;;;21.40;56.90;;;;;;5045701;28;19931;-75
2023/10/11 09:28:49;;;;;;;;;;;21.40;57.00;;;;;;5046721;28;19932;-78
2023/10/11 09:31:20;;;;;;;;;;;21.40;57.00;;;;;;5047672;28;19920;-73
2023/10/11 09:33:50;;;;;;;;;;;21.40;57.00;;;;;;5049217;28;20385;-74
2023/10/11 09:36:19;;;;;;;;;;;21.50;57.10;;;;;;5043159;28;19964;-72
2023/10/11 09:38:54;;;;;;;;;;;21.50;57.10;;;;;;5047036;28;19934;-69
2023/10/11 09:41:22;;;;;;;;;;;21.50;57.10;;;;;;5048228;28;19929;-74
2023/10/11 09:43:49;;;;;;;;;;;21.50;57.10;;;;;;5039013;28;19995;-74
2023/10/11 09:46:18;;;;;;;;;;;21.50;57.10;;;;;;5048005;28;19925;-74
2023/10/11 09:48:47;;;;;;;;;;;21.50;57.10;;;;;;5047523;28;19978;-70
2023/10/11 09:51:15;;;;;;;;;;;21.50;57.10;;;;;;5046150;28;19933;-76
2023/10/11 09:53:50;;;;;;;;;;;21.50;57.10;;;;;;5046365;28;19960;-72
2023/10/11 09:56:30;;;;;;;;;;;21.50;57.20;;;;;;5044807;28;19960;-70
2023/10/11 09:58:58;;;;;;;;;;;21.50;57.20;;;;;;5045794;28;19924;-70
2023/10/11 10:01:32;;;;;;;;;;;21.50;57.20;;;;;;5042247;28;19924;-69
2023/10/11 10:04:06;;;;;;;;;;;21.50;57.20;;;;;;5041777;28;19925;-67
2023/10/11 10:06:32;;;;;;;;;;;21.60;57.30;;;;;;5046645;28;19921;-67
2023/10/11 10:09:24;;;;;;;;;;;21.50;57.30;;;;;;5038105;28;19927;-67
2023/10/11 10:12:10;;;;;;;;;;;21.50;57.20;;;;;;5043837;28;20020;-69
2023/10/11 10:14:38;;;;;;;;;;;21.60;57.30;;;;;;5047687;28;19983;-67
2023/10/11 10:17:10;;;;;;;;;;;21.60;57.30;;;;;;5044930;28;19982;-69
2023/10/11 10:19:39;;;;;;;;;;;21.60;57.90;;;;;;5045525;28;19925;-68
2023/10/11 10:22:14;;;;;;;;;;;21.60;57.30;;;;;;5044380;28;20007;-69
2023/10/11 10:24:43;;;;;;;;;;;21.60;57.50;;;;;;5043899;28;19921;-67
2023/10/11 10:27:40;;;;;;;;;;;21.60;57.90;;;;;;5046685;28;19920;-68
2023/10/11 10:30:10;;;;;;;;;;;21.60;58.20;;;;;;4950591;28;19969;-67
2023/10/11 10:32:38;;;;;;;;;;;21.60;58.50;;;;;;5020404;28;19947;-67
2023/10/11 10:35:24;;;;;;;;;;;21.50;58.50;;;;;;5044577;28;20263;-67
2023/10/11 10:37:51;;;;;;;;;;;21.50;58.50;;;;;;5043395;28;19921;-67
2023/10/11 10:40:24;;;;;;;;;;;21.50;58.70;;;;;;5049311;28;19924;-67
2023/10/11 10:43:14;;;;;;;;;;;21.50;58.50;;;;;;5042702;28;19920;-67
2023/10/11 10:45:42;;;;;;;;;;;21.50;58.50;;;;;;5045867;28;19928;-67
2023/10/11 10:48:13;;;;;;;;;;;21.50;58.60;;;;;;5044344;28;20444;-70
2023/10/11 10:50:50;;;;;;;;;;;21.40;58.50;;;;;;5040455;28;20003;-70
2023/10/11 10:53:16;;;;;;;;;;;21.50;58.50;;;;;;5044917;28;19928;-70
2023/10/11 10:55:43;;;;;;;;;;;21.40;58.30;;;;;;5045147;28;20221;-70
2023/10/11 10:58:15;;;;;;;;;;;21.40;58.30;;;;;;5044392;28;19924;-73
2023/10/11 11:00:44;;;;;;;;;;;21.50;58.30;;;;;;5045436;28;19931;-73
2023/10/11 11:03:20;;;;;;;;;;;21.50;58.30;;;;;;5044536;28;19924;-71
2023/10/11 11:05:56;;;;;;;;;;;21.50;58.20;;;;;;5046044;28;19952;-71
2023/10/11 11:08:25;;;;;;;;;;;21.50;58.20;;;;;;5048251;28;20450;-72
2023/10/11 11:10:58;;;;;;;;;;;21.50;58.10;;;;;;5047201;28;19921;-74
2023/10/11 11:13:25;;;;;;;;;;;21.50;58.10;;;;;;5049482;28;19924;-76
2023/10/11 11:15:56;;;;;;;;;;;21.50;58.10;;;;;;5048549;28;19921;-73
2023/10/11 11:18:31;;;;;;;;;;;21.50;58.10;;;;;;5046445;28;20027;-74
2023/10/11 11:21:03;;;;;;;;;;;21.50;58.10;;;;;;5042224;28;19932;-76
2023/10/11 11:23:31;;;;;;;;;;;21.50;58.10;;;;;;5051910;28;20023;-71
2023/10/11 11:26:04;;;;;;;;;;;21.60;58.20;;;;;;5046681;28;20446;-71
2023/10/11 11:28:38;;;;;;;;;;;21.50;58.10;;;;;;5042317;28;19921;-71
2023/10/11 11:31:10;;;;;;;;;;;21.60;58.20;;;;;;5043055;28;19932;-74
2023/10/11 11:33:36;;;;;;;;;;;21.60;58.20;;;;;;5050264;28;19925;-71
2023/10/11 11:36:10;;;;;;;;;;;21.60;58.20;;;;;;5045951;28;19979;-73
2023/10/11 11:38:37;;;;;;;;;;;21.60;58.20;;;;;;5052167;28;19920;-67
2023/10/11 11:41:15;;;;;;;;;;;21.60;58.30;;;;;;5049661;28;19956;-73
2023/10/11 11:43:42;;;;;;;;;;;21.60;58.20;;;;;;5050239;28;19956;-70
2023/10/11 11:46:09;;;;;;;;;;;21.60;58.20;;;;;;5046857;28;19972;-70
2023/10/11 11:48:41;;;;;;;;;;;21.60;58.20;;;;;;5051321;28;19932;-69
2023/10/11 11:51:13;;;;;;;;;;;21.60;58.20;;;;;;5052965;28;19944;-72
2023/10/11 11:53:43;;;;;;;;;;;21.60;58.20;;;;;;5052124;28;19980;-72
2023/10/11 11:56:10;;;;;;;;;;;21.60;58.20;;;;;;5048954;28;19924;-71
2023/10/11 11:58:39;;;;;;;;;;;21.60;58.30;;;;;;5050222;28;19928;-70
2023/10/11 12:01:08;;;;;;;;;;;21.60;58.30;;;;;;5048665;28;19927;-76
2023/10/11 12:03:37;;;;;;;;;;;21.70;58.30;;;;;;5049313;28;19921;-71
2023/10/11 12:06:21;;;;;;;;;;;21.70;58.30;;;;;;5050486;28;19975;-73
2023/10/11 12:08:47;;;;;;;;;;;21.70;58.30;;;;;;5050710;28;19924;-72
2023/10/11 12:11:15;;;;;;;;;;;21.70;58.30;;;;;;5045806;28;19920;-76
2023/10/11 12:13:42;;;;;;;;;;;21.70;58.30;;;;;;5064589;28;19921;-73
2023/10/11 12:16:10;;;;;;;;;;;21.70;58.30;;;;;;5041554;28;19928;-73
2023/10/11 12:18:38;;;;;;;;;;;21.70;58.30;;;;;;5050176;28;19956;-73
2023/10/11 12:21:11;;;;;;;;;;;21.70;58.30;;;;;;5051091;28;19933;-74
2023/10/11 12:23:45;;;;;;;;;;;21.70;58.30;;;;;;5049428;28;19925;-73
2023/10/11 12:26:12;;;;;;;;;;;21.70;58.30;;;;;;5049551;28;19927;-76
2023/10/11 12:28:39;;;;;;;;;;;21.70;58.40;;;;;;5048964;28;20179;-71
2023/10/11 12:31:06;;;;;;;;;;;21.70;58.30;;;;;;5050809;28;19928;-72
2023/10/11 12:33:33;;;;;;;;;;;21.70;58.40;;;;;;5048531;28;19921;-70
2023/10/11 12:36:05;;;;;;;;;;;21.70;58.30;;;;;;5050374;28;19936;-71
2023/10/11 12:38:36;;;;;;;;;;;21.70;58.40;;;;;;5049278;28;19928;-70
2023/10/11 12:41:03;;;;;;;;;;;21.70;58.40;;;;;;5048930;28;19921;-70
2023/10/11 12:43:30;;;;;;;;;;;21.70;58.40;;;;;;5050541;28;19920;-68
2023/10/11 12:45:57;;;;;;;;;;;21.70;57.90;;;;;;5063567;28;19932;-72
2023/10/11 12:48:24;;;;;;;;;;;21.70;58.40;;;;;;5046324;28;19928;-73
2023/10/11 12:50:51;;;;;;;;;;;21.70;58.40;;;;;;5044966;28;20489;-77
2023/10/11 12:53:19;;;;;;;;;;;21.70;58.40;;;;;;5046559;28;19925;-73
2023/10/11 12:55:49;;;;;;;;;;;21.70;58.40;;;;;;5044041;28;19979;-70
2023/10/11 12:58:16;;;;;;;;;;;21.70;58.40;;;;;;5049025;28;19921;-77
2023/10/11 13:00:49;;;;;;;;;;;21.70;58.40;;;;;;5048851;28;19976;-78
2023/10/11 13:03:25;;;;;;;;;;;21.70;58.50;;;;;;5051391;28;19951;-77
2023/10/11 13:05:53;;;;;;;;;;;21.70;58.50;;;;;;5045973;28;19982;-71
2023/10/11 13:08:24;;;;;;;;;;;21.80;58.60;;;;;;5048597;28;19924;-73
2023/10/11 13:10:51;;;;;;;;;;;21.80;58.60;;;;;;5040820;28;20322;-75
2023/10/11 13:13:18;;;;;;;;;;;21.80;58.60;;;;;;5049932;28;19928;-76
2023/10/11 13:15:55;;;;;;;;;;;21.80;58.60;;;;;;5047454;28;19925;-73
2023/10/11 13:18:22;;;;;;;;;;;21.80;58.60;;;;;;5047930;28;19927;-75
2023/10/11 13:20:49;;;;;;;;;;;21.80;58.60;;;;;;5049259;28;19933;-71
2023/10/11 13:23:15;;;;;;;;;;;21.80;58.60;;;;;;5048866;28;19921;-77
2023/10/11 13:25:45;;;;;;;;;;;21.80;58.60;;;;;;5047215;28;19921;-73
2023/10/11 13:28:17;;;;;;;;;;;21.80;58.70;;;;;;5047984;28;19921;-75
2023/10/11 13:30:47;;;;;;;;;;;21.80;58.70;;;;;;5046204;28;19989;-71
2023/10/11 13:33:15;;;;;;;;;;;21.80;58.70;;;;;;5047743;28;20388;-69
2023/10/11 13:35:42;;;;;;;;;;;21.80;58.70;;;;;;5049216;28;19920;-75
2023/10/11 13:38:16;;;;;;;;;;;21.80;58.80;;;;;;5046270;28;19921;-69
2023/10/11 13:40:45;;;;;;;;;;;21.90;58.90;;;;;;5050649;28;20351;-66
2023/10/11 13:43:12;;;;;;;;;;;21.90;58.80;;;;;;5049217;28;19963;-73
2023/10/11 13:45:40;;;;;;;;;;;21.90;58.80;;;;;;5049265;28;19970;-68
2023/10/11 13:48:11;;;;;;;;;;;21.90;58.80;;;;;;5050062;28;19920;-70
2023/10/11 13:50:39;;;;;;;;;;;21.90;58.80;;;;;;5046725;28;20035;-69
2023/10/11 13:53:05;;;;;;;;;;;21.90;58.90;;;;;;5049981;28;19925;-68
2023/10/11 13:55:39;;;;;;;;;;;21.90;58.80;;;;;;5049468;28;19927;-72
2023/10/11 13:58:08;;;;;;;;;;;21.90;58.90;;;;;;5046705;28;19921;-75
2023/10/11 14:03:43;;;;;;;;;;;21.90;58.80;;;;;;5047624;28;19927;-67
2023/10/11 14:06:30;;;;;;;;;;;22.00;58.90;;;;;;5045208;28;19927;-74
2023/10/11 14:08:59;;;;;;;;;;;22.00;59.00;;;;;;5047377;28;19921;-70
2023/10/11 14:11:25;;;;;;;;;;;22.00;59.10;;;;;;5045509;28;19930;-70
2023/10/11 14:13:54;;;;;;;;;;;22.00;59.10;;;;;;5045850;28;19925;-73
2023/10/11 14:16:27;;;;;;;;;;;22.00;59.00;;;;;;5042392;28;19928;-77
2023/10/11 14:18:55;;;;;;;;;;;22.00;59.00;;;;;;5049070;28;20003;-71
2023/10/11 14:21:23;;;;;;;;;;;22.00;59.00;;;;;;5046821;28;19925;-69
2023/10/11 14:23:51;;;;;;;;;;;22.00;59.00;;;;;;5049394;28;19971;-72
2023/10/11 14:26:18;;;;;;;;;;;22.00;59.00;;;;;;5049133;28;19925;-70
2023/10/11 14:28:45;;;;;;;;;;;22.00;59.00;;;;;;5050344;28;19924;-67
2023/10/11 14:31:20;;;;;;;;;;;22.00;58.90;;;;;;5050189;28;20367;-67
2023/10/11 14:33:49;;;;;;;;;;;22.00;59.00;;;;;;5047533;28;19948;-67
2023/10/11 14:36:20;;;;;;;;;;;22.00;59.00;;;;;;5041370;28;19938;-68
2023/10/11 14:38:46;;;;;;;;;;;22.00;58.90;;;;;;5049536;28;19986;-67
2023/10/11 14:41:14;;;;;;;;;;;22.00;59.00;;;;;;5046466;28;19951;-69
2023/10/11 14:43:41;;;;;;;;;;;22.00;59.00;;;;;;5048271;28;19948;-68
2023/10/11 14:46:08;;;;;;;;;;;22.00;59.00;;;;;;5043790;28;19921;-67
2023/10/11 14:48:36;;;;;;;;;;;22.00;58.90;;;;;;5049158;28;20362;-68
2023/10/11 14:51:06;;;;;;;;;;;22.00;59.00;;;;;;5046038;28;20398;-66
2023/10/11 14:53:34;;;;;;;;;;;22.00;59.00;;;;;;5047742;28;19920;-66
2023/10/11 14:56:06;;;;;;;;;;;22.00;59.00;;;;;;5048319;28;19982;-72
2023/10/11 14:58:34;;;;;;;;;;;22.00;58.90;;;;;;5044153;28;19924;-69